sensor_id;sensor_type;location;lat;lon;timestamp;P1;durP1;ratioP1;P2;durP2;ratioP2
16832;SDS011;8533;48.426;10.868;2023-09-07T00:01:46;6.83;;;5.23;;
16832;SDS011;8533;48.426;10.868;2023-09-07T00:04:11;10.23;;;5.00;;
16832;SDS011;8533;48.426;10.868;2023-09-07T00:06:37;9.60;;;4.50;;
16832;SDS011;8533;48.426;10.868;2023-09-07T00:09:03;7.17;;;5.10;;
16832;SDS011;8533;48.426;10.868;2023-09-07T00:11:30;11.00;;;5.07;;
16832;SDS011;8533;48.426;10.868;2023-09-07T00:13:56;6.83;;;4.97;;
16832;SDS011;8533;48.426;10.868;2023-09-07T00:16:24;8.10;;;5.47;;
16832;SDS011;8533;48.426;10.868;2023-09-07T00:18:49;6.73;;;4.33;;
16832;SDS011;8533;48.426;10.868;2023-09-07T00:21:15;7.23;;;4.90;;
16832;SDS011;8533;48.426;10.868;2023-09-07T00:23:40;5.97;;;4.60;;
16832;SDS011;8533;48.426;10.868;2023-09-07T00:26:05;9.70;;;5.03;;
16832;SDS011;8533;48.426;10.868;2023-09-07T00:28:31;8.73;;;5.23;;
16832;SDS011;8533;48.426;10.868;2023-09-07T00:30:56;6.67;;;5.03;;
16832;SDS011;8533;48.426;10.868;2023-09-07T00:33:21;6.73;;;4.83;;
16832;SDS011;8533;48.426;10.868;2023-09-07T00:35:47;7.07;;;4.93;;
16832;SDS011;8533;48.426;10.868;2023-09-07T00:38:12;6.93;;;4.43;;
16832;SDS011;8533;48.426;10.868;2023-09-07T00:40:37;6.77;;;4.77;;
16832;SDS011;8533;48.426;10.868;2023-09-07T00:43:03;6.73;;;4.83;;
16832;SDS011;8533;48.426;10.868;2023-09-07T00:45:29;8.70;;;4.80;;
16832;SDS011;8533;48.426;10.868;2023-09-07T00:47:55;8.17;;;4.73;;
16832;SDS011;8533;48.426;10.868;2023-09-07T00:50:20;6.87;;;4.77;;
16832;SDS011;8533;48.426;10.868;2023-09-07T00:52:46;9.80;;;5.33;;
16832;SDS011;8533;48.426;10.868;2023-09-07T00:55:12;7.07;;;5.10;;
16832;SDS011;8533;48.426;10.868;2023-09-07T00:57:38;6.13;;;4.87;;
16832;SDS011;8533;48.426;10.868;2023-09-07T01:00:07;7.23;;;4.93;;
16832;SDS011;8533;48.426;10.868;2023-09-07T01:02:34;7.83;;;4.63;;
16832;SDS011;8533;48.426;10.868;2023-09-07T01:04:59;9.30;;;4.80;;
16832;SDS011;8533;48.426;10.868;2023-09-07T01:07:43;6.67;;;5.10;;
16832;SDS011;8533;48.426;10.868;2023-09-07T01:10:12;7.63;;;4.60;;
16832;SDS011;8533;48.426;10.868;2023-09-07T01:12:39;6.83;;;5.03;;
16832;SDS011;8533;48.426;10.868;2023-09-07T01:15:05;5.90;;;4.90;;
16832;SDS011;8533;48.426;10.868;2023-09-07T01:17:30;8.20;;;5.00;;
16832;SDS011;8533;48.426;10.868;2023-09-07T01:19:58;8.43;;;5.07;;
16832;SDS011;8533;48.426;10.868;2023-09-07T01:22:30;8.30;;;5.30;;
16832;SDS011;8533;48.426;10.868;2023-09-07T01:24:56;7.07;;;4.90;;
16832;SDS011;8533;48.426;10.868;2023-09-07T01:27:23;7.17;;;4.77;;
16832;SDS011;8533;48.426;10.868;2023-09-07T01:29:48;9.00;;;5.37;;
16832;SDS011;8533;48.426;10.868;2023-09-07T01:32:13;9.97;;;5.40;;
16832;SDS011;8533;48.426;10.868;2023-09-07T01:34:39;8.30;;;4.63;;
16832;SDS011;8533;48.426;10.868;2023-09-07T01:37:04;8.73;;;5.30;;
16832;SDS011;8533;48.426;10.868;2023-09-07T01:39:29;7.20;;;5.30;;
16832;SDS011;8533;48.426;10.868;2023-09-07T01:41:54;10.10;;;5.70;;
16832;SDS011;8533;48.426;10.868;2023-09-07T01:44:20;8.13;;;5.17;;
16832;SDS011;8533;48.426;10.868;2023-09-07T01:46:45;11.23;;;5.43;;
16832;SDS011;8533;48.426;10.868;2023-09-07T01:49:10;9.80;;;5.70;;
16832;SDS011;8533;48.426;10.868;2023-09-07T01:51:36;8.60;;;5.40;;
16832;SDS011;8533;48.426;10.868;2023-09-07T01:54:01;9.70;;;5.60;;
16832;SDS011;8533;48.426;10.868;2023-09-07T01:56:27;10.57;;;5.77;;
16832;SDS011;8533;48.426;10.868;2023-09-07T01:58:52;7.53;;;5.70;;
16832;SDS011;8533;48.426;10.868;2023-09-07T02:03:47;10.50;;;5.93;;
16832;SDS011;8533;48.426;10.868;2023-09-07T02:06:13;13.57;;;5.50;;
16832;SDS011;8533;48.426;10.868;2023-09-07T02:08:38;9.03;;;5.47;;
16832;SDS011;8533;48.426;10.868;2023-09-07T02:11:05;13.07;;;6.10;;
16832;SDS011;8533;48.426;10.868;2023-09-07T02:13:30;13.07;;;6.07;;
16832;SDS011;8533;48.426;10.868;2023-09-07T02:15:56;11.33;;;5.93;;
16832;SDS011;8533;48.426;10.868;2023-09-07T02:18:21;12.07;;;6.00;;
16832;SDS011;8533;48.426;10.868;2023-09-07T02:20:46;9.13;;;5.60;;
16832;SDS011;8533;48.426;10.868;2023-09-07T02:23:11;12.63;;;5.67;;
16832;SDS011;8533;48.426;10.868;2023-09-07T02:25:37;15.20;;;6.40;;
16832;SDS011;8533;48.426;10.868;2023-09-07T02:28:02;14.43;;;6.57;;
16832;SDS011;8533;48.426;10.868;2023-09-07T02:30:27;8.17;;;6.10;;
16832;SDS011;8533;48.426;10.868;2023-09-07T02:32:53;12.47;;;6.03;;
16832;SDS011;8533;48.426;10.868;2023-09-07T02:35:18;12.23;;;5.80;;
16832;SDS011;8533;48.426;10.868;2023-09-07T02:37:44;11.93;;;6.27;;
16832;SDS011;8533;48.426;10.868;2023-09-07T02:40:09;9.03;;;5.63;;
16832;SDS011;8533;48.426;10.868;2023-09-07T02:42:35;10.03;;;6.07;;
16832;SDS011;8533;48.426;10.868;2023-09-07T02:45:00;9.17;;;6.27;;
16832;SDS011;8533;48.426;10.868;2023-09-07T02:47:25;8.47;;;6.30;;
16832;SDS011;8533;48.426;10.868;2023-09-07T02:49:51;9.67;;;5.97;;
16832;SDS011;8533;48.426;10.868;2023-09-07T02:52:16;9.53;;;5.67;;
16832;SDS011;8533;48.426;10.868;2023-09-07T02:54:41;10.37;;;6.53;;
16832;SDS011;8533;48.426;10.868;2023-09-07T02:57:07;8.90;;;6.33;;
16832;SDS011;8533;48.426;10.868;2023-09-07T02:59:32;11.20;;;6.40;;
16832;SDS011;8533;48.426;10.868;2023-09-07T03:01:58;9.27;;;6.10;;
16832;SDS011;8533;48.426;10.868;2023-09-07T03:04:23;9.10;;;6.30;;
16832;SDS011;8533;48.426;10.868;2023-09-07T03:06:48;7.63;;;5.70;;
16832;SDS011;8533;48.426;10.868;2023-09-07T03:09:13;8.83;;;6.00;;
16832;SDS011;8533;48.426;10.868;2023-09-07T03:11:39;11.13;;;6.03;;
16832;SDS011;8533;48.426;10.868;2023-09-07T03:14:04;10.70;;;6.43;;
16832;SDS011;8533;48.426;10.868;2023-09-07T03:16:29;9.50;;;6.97;;
16832;SDS011;8533;48.426;10.868;2023-09-07T03:18:56;10.43;;;6.67;;
16832;SDS011;8533;48.426;10.868;2023-09-07T03:21:21;10.60;;;7.10;;
16832;SDS011;8533;48.426;10.868;2023-09-07T03:23:50;8.03;;;6.10;;
16832;SDS011;8533;48.426;10.868;2023-09-07T03:26:16;7.87;;;6.20;;
16832;SDS011;8533;48.426;10.868;2023-09-07T03:28:42;10.57;;;7.27;;
16832;SDS011;8533;48.426;10.868;2023-09-07T03:31:07;9.77;;;6.50;;
16832;SDS011;8533;48.426;10.868;2023-09-07T03:33:32;12.70;;;7.10;;
16832;SDS011;8533;48.426;10.868;2023-09-07T03:35:57;10.53;;;7.33;;
16832;SDS011;8533;48.426;10.868;2023-09-07T03:38:24;12.53;;;7.20;;
16832;SDS011;8533;48.426;10.868;2023-09-07T03:40:49;10.00;;;6.50;;
16832;SDS011;8533;48.426;10.868;2023-09-07T03:43:15;10.20;;;7.00;;
16832;SDS011;8533;48.426;10.868;2023-09-07T03:45:40;9.87;;;7.00;;
16832;SDS011;8533;48.426;10.868;2023-09-07T03:48:06;10.40;;;7.20;;
16832;SDS011;8533;48.426;10.868;2023-09-07T03:50:31;9.43;;;6.63;;
16832;SDS011;8533;48.426;10.868;2023-09-07T03:52:56;10.37;;;6.83;;
16832;SDS011;8533;48.426;10.868;2023-09-07T03:55:22;10.83;;;7.40;;
16832;SDS011;8533;48.426;10.868;2023-09-07T03:57:47;11.80;;;7.40;;
16832;SDS011;8533;48.426;10.868;2023-09-07T04:00:12;9.93;;;7.10;;
16832;SDS011;8533;48.426;10.868;2023-09-07T04:02:39;11.13;;;7.43;;
16832;SDS011;8533;48.426;10.868;2023-09-07T04:05:04;10.73;;;6.57;;
16832;SDS011;8533;48.426;10.868;2023-09-07T04:07:30;7.97;;;6.23;;
16832;SDS011;8533;48.426;10.868;2023-09-07T04:09:56;10.30;;;6.77;;
16832;SDS011;8533;48.426;10.868;2023-09-07T04:12:22;9.73;;;6.90;;
16832;SDS011;8533;48.426;10.868;2023-09-07T04:14:47;9.50;;;6.80;;
16832;SDS011;8533;48.426;10.868;2023-09-07T04:17:12;10.20;;;6.90;;
16832;SDS011;8533;48.426;10.868;2023-09-07T04:19:38;9.90;;;6.10;;
16832;SDS011;8533;48.426;10.868;2023-09-07T04:22:03;10.50;;;6.90;;
16832;SDS011;8533;48.426;10.868;2023-09-07T04:24:29;11.80;;;7.10;;
16832;SDS011;8533;48.426;10.868;2023-09-07T04:26:57;13.27;;;6.73;;
16832;SDS011;8533;48.426;10.868;2023-09-07T04:29:25;12.13;;;6.93;;
16832;SDS011;8533;48.426;10.868;2023-09-07T04:31:51;10.70;;;7.10;;
16832;SDS011;8533;48.426;10.868;2023-09-07T04:34:16;8.87;;;6.53;;
16832;SDS011;8533;48.426;10.868;2023-09-07T04:36:41;10.70;;;7.13;;
16832;SDS011;8533;48.426;10.868;2023-09-07T04:39:07;9.73;;;6.60;;
16832;SDS011;8533;48.426;10.868;2023-09-07T04:41:32;10.63;;;7.23;;
16832;SDS011;8533;48.426;10.868;2023-09-07T04:43:57;10.57;;;7.37;;
16832;SDS011;8533;48.426;10.868;2023-09-07T04:46:23;8.90;;;6.33;;
16832;SDS011;8533;48.426;10.868;2023-09-07T04:48:48;10.47;;;7.47;;
16832;SDS011;8533;48.426;10.868;2023-09-07T04:51:14;11.10;;;7.43;;
16832;SDS011;8533;48.426;10.868;2023-09-07T04:53:39;11.47;;;7.17;;
16832;SDS011;8533;48.426;10.868;2023-09-07T04:56:05;9.33;;;6.50;;
16832;SDS011;8533;48.426;10.868;2023-09-07T04:58:32;10.47;;;7.27;;
16832;SDS011;8533;48.426;10.868;2023-09-07T05:01:04;10.83;;;7.20;;
16832;SDS011;8533;48.426;10.868;2023-09-07T05:03:30;11.30;;;7.97;;
16832;SDS011;8533;48.426;10.868;2023-09-07T05:05:56;11.00;;;7.43;;
16832;SDS011;8533;48.426;10.868;2023-09-07T05:08:22;8.83;;;6.90;;
16832;SDS011;8533;48.426;10.868;2023-09-07T05:10:54;10.20;;;7.23;;
16832;SDS011;8533;48.426;10.868;2023-09-07T05:13:20;14.40;;;7.47;;
16832;SDS011;8533;48.426;10.868;2023-09-07T05:15:46;10.80;;;7.17;;
16832;SDS011;8533;48.426;10.868;2023-09-07T05:18:13;11.53;;;7.70;;
16832;SDS011;8533;48.426;10.868;2023-09-07T05:20:38;12.53;;;7.53;;
16832;SDS011;8533;48.426;10.868;2023-09-07T05:23:04;11.00;;;7.50;;
16832;SDS011;8533;48.426;10.868;2023-09-07T05:25:29;10.67;;;7.23;;
16832;SDS011;8533;48.426;10.868;2023-09-07T05:27:54;10.17;;;7.50;;
16832;SDS011;8533;48.426;10.868;2023-09-07T05:30:20;10.37;;;7.13;;
16832;SDS011;8533;48.426;10.868;2023-09-07T05:32:45;13.27;;;7.90;;
16832;SDS011;8533;48.426;10.868;2023-09-07T05:35:10;12.03;;;8.30;;
16832;SDS011;8533;48.426;10.868;2023-09-07T05:37:37;13.03;;;8.17;;
16832;SDS011;8533;48.426;10.868;2023-09-07T05:40:02;13.97;;;8.37;;
16832;SDS011;8533;48.426;10.868;2023-09-07T05:42:29;12.13;;;8.20;;
16832;SDS011;8533;48.426;10.868;2023-09-07T05:44:54;15.27;;;7.90;;
16832;SDS011;8533;48.426;10.868;2023-09-07T05:47:19;13.47;;;8.03;;
16832;SDS011;8533;48.426;10.868;2023-09-07T05:49:45;11.57;;;8.30;;
16832;SDS011;8533;48.426;10.868;2023-09-07T05:52:10;12.43;;;8.43;;
16832;SDS011;8533;48.426;10.868;2023-09-07T05:54:35;12.43;;;8.27;;
16832;SDS011;8533;48.426;10.868;2023-09-07T05:57:00;14.70;;;9.23;;
16832;SDS011;8533;48.426;10.868;2023-09-07T05:59:26;10.57;;;8.10;;
16832;SDS011;8533;48.426;10.868;2023-09-07T06:01:51;10.77;;;7.67;;
16832;SDS011;8533;48.426;10.868;2023-09-07T06:04:16;11.03;;;7.90;;
16832;SDS011;8533;48.426;10.868;2023-09-07T06:06:42;10.67;;;7.47;;
16832;SDS011;8533;48.426;10.868;2023-09-07T06:09:07;11.07;;;7.20;;
16832;SDS011;8533;48.426;10.868;2023-09-07T06:11:32;10.97;;;7.50;;
16832;SDS011;8533;48.426;10.868;2023-09-07T06:13:58;13.87;;;7.37;;
16832;SDS011;8533;48.426;10.868;2023-09-07T06:16:23;10.97;;;7.57;;
16832;SDS011;8533;48.426;10.868;2023-09-07T06:18:49;9.93;;;7.70;;
16832;SDS011;8533;48.426;10.868;2023-09-07T06:21:14;14.60;;;6.80;;
16832;SDS011;8533;48.426;10.868;2023-09-07T06:23:39;9.93;;;6.97;;
16832;SDS011;8533;48.426;10.868;2023-09-07T06:26:04;10.93;;;7.07;;
16832;SDS011;8533;48.426;10.868;2023-09-07T06:28:30;10.43;;;6.70;;
16832;SDS011;8533;48.426;10.868;2023-09-07T06:30:55;10.63;;;6.80;;
16832;SDS011;8533;48.426;10.868;2023-09-07T06:33:20;10.47;;;6.80;;
16832;SDS011;8533;48.426;10.868;2023-09-07T06:35:46;9.37;;;6.63;;
16832;SDS011;8533;48.426;10.868;2023-09-07T06:38:11;8.70;;;6.73;;
16832;SDS011;8533;48.426;10.868;2023-09-07T06:40:36;9.73;;;6.50;;
16832;SDS011;8533;48.426;10.868;2023-09-07T06:43:01;8.37;;;5.83;;
16832;SDS011;8533;48.426;10.868;2023-09-07T06:45:32;9.30;;;6.80;;
16832;SDS011;8533;48.426;10.868;2023-09-07T06:47:59;10.43;;;6.13;;
16832;SDS011;8533;48.426;10.868;2023-09-07T06:50:24;9.27;;;6.17;;
16832;SDS011;8533;48.426;10.868;2023-09-07T06:52:49;9.60;;;6.03;;
16832;SDS011;8533;48.426;10.868;2023-09-07T06:55:16;8.53;;;6.60;;
16832;SDS011;8533;48.426;10.868;2023-09-07T06:57:41;13.70;;;6.67;;
16832;SDS011;8533;48.426;10.868;2023-09-07T07:00:07;8.90;;;6.47;;
16832;SDS011;8533;48.426;10.868;2023-09-07T07:02:33;11.40;;;6.67;;
16832;SDS011;8533;48.426;10.868;2023-09-07T07:04:59;8.00;;;6.27;;
16832;SDS011;8533;48.426;10.868;2023-09-07T07:07:24;9.20;;;6.53;;
16832;SDS011;8533;48.426;10.868;2023-09-07T07:09:49;10.40;;;6.87;;
16832;SDS011;8533;48.426;10.868;2023-09-07T07:12:15;8.90;;;6.37;;
16832;SDS011;8533;48.426;10.868;2023-09-07T07:14:41;9.53;;;6.40;;
16832;SDS011;8533;48.426;10.868;2023-09-07T07:17:06;9.37;;;6.13;;
16832;SDS011;8533;48.426;10.868;2023-09-07T07:19:31;7.70;;;5.60;;
16832;SDS011;8533;48.426;10.868;2023-09-07T07:21:57;10.20;;;6.63;;
16832;SDS011;8533;48.426;10.868;2023-09-07T07:24:22;8.13;;;6.03;;
16832;SDS011;8533;48.426;10.868;2023-09-07T07:26:47;9.17;;;6.40;;
16832;SDS011;8533;48.426;10.868;2023-09-07T07:29:12;11.07;;;5.90;;
16832;SDS011;8533;48.426;10.868;2023-09-07T07:31:38;7.87;;;5.93;;
16832;SDS011;8533;48.426;10.868;2023-09-07T07:34:04;11.97;;;5.77;;
16832;SDS011;8533;48.426;10.868;2023-09-07T07:36:29;8.73;;;5.90;;
16832;SDS011;8533;48.426;10.868;2023-09-07T07:38:55;8.83;;;5.73;;
16832;SDS011;8533;48.426;10.868;2023-09-07T07:41:21;12.40;;;5.97;;
16832;SDS011;8533;48.426;10.868;2023-09-07T07:43:46;7.87;;;5.73;;
16832;SDS011;8533;48.426;10.868;2023-09-07T07:46:11;9.33;;;5.70;;
16832;SDS011;8533;48.426;10.868;2023-09-07T07:48:40;9.67;;;6.17;;
16832;SDS011;8533;48.426;10.868;2023-09-07T07:51:05;8.17;;;5.63;;
16832;SDS011;8533;48.426;10.868;2023-09-07T07:53:31;7.10;;;5.43;;
16832;SDS011;8533;48.426;10.868;2023-09-07T07:55:56;11.47;;;5.80;;
16832;SDS011;8533;48.426;10.868;2023-09-07T07:58:22;9.80;;;6.40;;
16832;SDS011;8533;48.426;10.868;2023-09-07T08:00:47;7.23;;;5.60;;
16832;SDS011;8533;48.426;10.868;2023-09-07T08:03:13;8.57;;;5.90;;
16832;SDS011;8533;48.426;10.868;2023-09-07T08:05:39;8.57;;;6.27;;
16832;SDS011;8533;48.426;10.868;2023-09-07T08:08:05;7.73;;;5.83;;
16832;SDS011;8533;48.426;10.868;2023-09-07T08:10:39;7.83;;;5.63;;
16832;SDS011;8533;48.426;10.868;2023-09-07T08:13:06;9.40;;;5.60;;
16832;SDS011;8533;48.426;10.868;2023-09-07T08:15:32;8.23;;;5.80;;
16832;SDS011;8533;48.426;10.868;2023-09-07T08:17:58;7.30;;;5.70;;
16832;SDS011;8533;48.426;10.868;2023-09-07T08:20:27;6.70;;;5.77;;
16832;SDS011;8533;48.426;10.868;2023-09-07T08:22:54;10.40;;;5.77;;
16832;SDS011;8533;48.426;10.868;2023-09-07T08:25:19;8.97;;;6.10;;
16832;SDS011;8533;48.426;10.868;2023-09-07T08:27:45;7.70;;;5.80;;
16832;SDS011;8533;48.426;10.868;2023-09-07T08:30:13;6.43;;;5.50;;
16832;SDS011;8533;48.426;10.868;2023-09-07T08:32:43;7.50;;;5.83;;
16832;SDS011;8533;48.426;10.868;2023-09-07T08:35:10;7.13;;;5.40;;
16832;SDS011;8533;48.426;10.868;2023-09-07T08:37:38;8.93;;;5.77;;
16832;SDS011;8533;48.426;10.868;2023-09-07T08:40:04;7.37;;;5.50;;
16832;SDS011;8533;48.426;10.868;2023-09-07T08:42:32;9.27;;;5.60;;
16832;SDS011;8533;48.426;10.868;2023-09-07T08:44:58;7.40;;;5.60;;
16832;SDS011;8533;48.426;10.868;2023-09-07T08:47:28;6.10;;;5.20;;
16832;SDS011;8533;48.426;10.868;2023-09-07T08:49:56;6.90;;;5.80;;
16832;SDS011;8533;48.426;10.868;2023-09-07T08:52:22;10.17;;;5.73;;
16832;SDS011;8533;48.426;10.868;2023-09-07T08:54:48;6.93;;;5.57;;
16832;SDS011;8533;48.426;10.868;2023-09-07T08:57:14;7.03;;;5.10;;
16832;SDS011;8533;48.426;10.868;2023-09-07T08:59:39;9.87;;;5.60;;
16832;SDS011;8533;48.426;10.868;2023-09-07T09:02:07;6.70;;;5.60;;
16832;SDS011;8533;48.426;10.868;2023-09-07T09:04:36;8.67;;;5.67;;
16832;SDS011;8533;48.426;10.868;2023-09-07T09:07:02;7.97;;;5.20;;
16832;SDS011;8533;48.426;10.868;2023-09-07T09:09:29;6.73;;;5.27;;
16832;SDS011;8533;48.426;10.868;2023-09-07T09:11:54;9.50;;;5.93;;
16832;SDS011;8533;48.426;10.868;2023-09-07T09:14:20;8.10;;;5.10;;
16832;SDS011;8533;48.426;10.868;2023-09-07T09:16:50;7.87;;;5.33;;
16832;SDS011;8533;48.426;10.868;2023-09-07T09:19:16;7.90;;;5.43;;
16832;SDS011;8533;48.426;10.868;2023-09-07T09:21:43;9.33;;;5.70;;
16832;SDS011;8533;48.426;10.868;2023-09-07T09:24:11;6.43;;;5.17;;
16832;SDS011;8533;48.426;10.868;2023-09-07T09:26:39;7.17;;;5.47;;
16832;SDS011;8533;48.426;10.868;2023-09-07T09:29:05;6.97;;;5.07;;
16832;SDS011;8533;48.426;10.868;2023-09-07T09:31:30;8.97;;;5.47;;
16832;SDS011;8533;48.426;10.868;2023-09-07T09:33:56;8.13;;;5.47;;
16832;SDS011;8533;48.426;10.868;2023-09-07T09:36:21;8.37;;;5.47;;
16832;SDS011;8533;48.426;10.868;2023-09-07T09:38:48;12.83;;;5.53;;
16832;SDS011;8533;48.426;10.868;2023-09-07T09:41:15;7.70;;;5.10;;
16832;SDS011;8533;48.426;10.868;2023-09-07T09:43:42;10.27;;;6.40;;
16832;SDS011;8533;48.426;10.868;2023-09-07T09:46:09;10.07;;;5.63;;
16832;SDS011;8533;48.426;10.868;2023-09-07T09:48:35;12.57;;;4.93;;
16832;SDS011;8533;48.426;10.868;2023-09-07T09:51:01;6.43;;;5.00;;
16832;SDS011;8533;48.426;10.868;2023-09-07T09:53:28;7.27;;;5.23;;
16832;SDS011;8533;48.426;10.868;2023-09-07T09:55:55;6.23;;;5.07;;
16832;SDS011;8533;48.426;10.868;2023-09-07T09:58:20;7.10;;;5.10;;
16832;SDS011;8533;48.426;10.868;2023-09-07T10:00:48;9.87;;;5.40;;
16832;SDS011;8533;48.426;10.868;2023-09-07T10:04:00;6.40;;;5.43;;
16832;SDS011;8533;48.426;10.868;2023-09-07T10:06:32;6.77;;;4.97;;
16832;SDS011;8533;48.426;10.868;2023-09-07T10:11:35;7.00;;;5.00;;
16832;SDS011;8533;48.426;10.868;2023-09-07T10:14:03;7.17;;;5.40;;
16832;SDS011;8533;48.426;10.868;2023-09-07T10:16:43;5.30;;;4.80;;
16832;SDS011;8533;48.426;10.868;2023-09-07T10:21:47;7.87;;;5.10;;
16832;SDS011;8533;48.426;10.868;2023-09-07T10:24:23;5.30;;;4.80;;
16832;SDS011;8533;48.426;10.868;2023-09-07T10:26:59;6.97;;;5.00;;
16832;SDS011;8533;48.426;10.868;2023-09-07T10:29:26;6.77;;;5.20;;
16832;SDS011;8533;48.426;10.868;2023-09-07T10:31:52;6.83;;;5.27;;
16832;SDS011;8533;48.426;10.868;2023-09-07T10:34:18;8.07;;;4.60;;
16832;SDS011;8533;48.426;10.868;2023-09-07T10:36:43;5.03;;;4.40;;
16832;SDS011;8533;48.426;10.868;2023-09-07T10:39:09;6.13;;;4.63;;
16832;SDS011;8533;48.426;10.868;2023-09-07T10:41:40;6.73;;;4.63;;
16832;SDS011;8533;48.426;10.868;2023-09-07T10:44:09;5.47;;;4.53;;
16832;SDS011;8533;48.426;10.868;2023-09-07T10:46:39;6.53;;;5.27;;
16832;SDS011;8533;48.426;10.868;2023-09-07T10:49:08;7.33;;;5.03;;
16832;SDS011;8533;48.426;10.868;2023-09-07T10:51:40;4.97;;;4.17;;
16832;SDS011;8533;48.426;10.868;2023-09-07T10:54:13;5.47;;;4.93;;
16832;SDS011;8533;48.426;10.868;2023-09-07T10:56:45;4.97;;;4.47;;
16832;SDS011;8533;48.426;10.868;2023-09-07T10:59:11;7.53;;;5.10;;
16832;SDS011;8533;48.426;10.868;2023-09-07T11:01:38;6.73;;;4.70;;
16832;SDS011;8533;48.426;10.868;2023-09-07T11:04:04;9.00;;;4.57;;
16832;SDS011;8533;48.426;10.868;2023-09-07T11:06:30;6.33;;;4.90;;
16832;SDS011;8533;48.426;10.868;2023-09-07T11:08:58;4.97;;;4.47;;
16832;SDS011;8533;48.426;10.868;2023-09-07T11:11:24;5.80;;;4.10;;
16832;SDS011;8533;48.426;10.868;2023-09-07T11:13:50;8.23;;;4.60;;
16832;SDS011;8533;48.426;10.868;2023-09-07T11:16:16;5.77;;;4.67;;
16832;SDS011;8533;48.426;10.868;2023-09-07T11:18:42;5.67;;;4.23;;
16832;SDS011;8533;48.426;10.868;2023-09-07T11:21:07;6.17;;;4.60;;
16832;SDS011;8533;48.426;10.868;2023-09-07T11:23:32;5.23;;;4.57;;
16832;SDS011;8533;48.426;10.868;2023-09-07T11:26:03;5.73;;;4.37;;
16832;SDS011;8533;48.426;10.868;2023-09-07T11:28:30;6.13;;;5.27;;
16832;SDS011;8533;48.426;10.868;2023-09-07T11:30:56;5.50;;;5.00;;
16832;SDS011;8533;48.426;10.868;2023-09-07T11:33:22;6.40;;;5.40;;
16832;SDS011;8533;48.426;10.868;2023-09-07T11:35:49;8.67;;;4.80;;
16832;SDS011;8533;48.426;10.868;2023-09-07T11:38:14;6.73;;;5.00;;
16832;SDS011;8533;48.426;10.868;2023-09-07T11:40:41;5.77;;;4.97;;
16832;SDS011;8533;48.426;10.868;2023-09-07T11:43:10;7.20;;;5.10;;
16832;SDS011;8533;48.426;10.868;2023-09-07T11:45:37;7.83;;;4.93;;
16832;SDS011;8533;48.426;10.868;2023-09-07T11:48:03;7.70;;;5.00;;
16832;SDS011;8533;48.426;10.868;2023-09-07T11:50:28;5.37;;;4.60;;
16832;SDS011;8533;48.426;10.868;2023-09-07T11:52:55;7.53;;;4.87;;
16832;SDS011;8533;48.426;10.868;2023-09-07T11:55:21;5.73;;;5.13;;
16832;SDS011;8533;48.426;10.868;2023-09-07T11:57:46;5.20;;;4.37;;
16832;SDS011;8533;48.426;10.868;2023-09-07T12:00:12;5.17;;;4.60;;
16832;SDS011;8533;48.426;10.868;2023-09-07T12:02:39;5.77;;;4.37;;
16832;SDS011;8533;48.426;10.868;2023-09-07T12:05:05;4.90;;;4.40;;
16832;SDS011;8533;48.426;10.868;2023-09-07T12:07:35;4.70;;;4.20;;
16832;SDS011;8533;48.426;10.868;2023-09-07T12:10:01;8.60;;;4.73;;
16832;SDS011;8533;48.426;10.868;2023-09-07T12:12:27;5.20;;;4.53;;
16832;SDS011;8533;48.426;10.868;2023-09-07T12:14:53;6.57;;;4.20;;
16832;SDS011;8533;48.426;10.868;2023-09-07T12:17:18;6.33;;;4.40;;
16832;SDS011;8533;48.426;10.868;2023-09-07T12:19:44;5.83;;;4.53;;
16832;SDS011;8533;48.426;10.868;2023-09-07T12:22:11;5.80;;;4.57;;
16832;SDS011;8533;48.426;10.868;2023-09-07T12:24:36;4.73;;;4.10;;
16832;SDS011;8533;48.426;10.868;2023-09-07T12:27:01;4.80;;;4.30;;
16832;SDS011;8533;48.426;10.868;2023-09-07T12:29:27;4.87;;;4.23;;
16832;SDS011;8533;48.426;10.868;2023-09-07T12:31:52;7.07;;;4.70;;
16832;SDS011;8533;48.426;10.868;2023-09-07T12:34:17;4.83;;;4.33;;
16832;SDS011;8533;48.426;10.868;2023-09-07T12:36:43;6.83;;;4.60;;
16832;SDS011;8533;48.426;10.868;2023-09-07T12:39:08;5.27;;;4.53;;
16832;SDS011;8533;48.426;10.868;2023-09-07T12:41:33;5.73;;;4.17;;
16832;SDS011;8533;48.426;10.868;2023-09-07T12:43:59;7.57;;;4.13;;
16832;SDS011;8533;48.426;10.868;2023-09-07T12:46:24;6.30;;;4.20;;
16832;SDS011;8533;48.426;10.868;2023-09-07T12:48:49;4.77;;;4.03;;
16832;SDS011;8533;48.426;10.868;2023-09-07T12:51:15;4.37;;;3.97;;
16832;SDS011;8533;48.426;10.868;2023-09-07T12:53:41;5.03;;;4.30;;
16832;SDS011;8533;48.426;10.868;2023-09-07T12:56:06;5.10;;;4.33;;
16832;SDS011;8533;48.426;10.868;2023-09-07T12:58:32;5.00;;;4.50;;
16832;SDS011;8533;48.426;10.868;2023-09-07T13:00:57;9.20;;;4.30;;
16832;SDS011;8533;48.426;10.868;2023-09-07T13:03:22;5.83;;;4.20;;
16832;SDS011;8533;48.426;10.868;2023-09-07T13:05:48;6.97;;;4.13;;
16832;SDS011;8533;48.426;10.868;2023-09-07T13:08:14;7.47;;;4.47;;
16832;SDS011;8533;48.426;10.868;2023-09-07T13:10:39;5.67;;;4.63;;
16832;SDS011;8533;48.426;10.868;2023-09-07T13:13:04;6.43;;;4.10;;
16832;SDS011;8533;48.426;10.868;2023-09-07T13:15:30;8.43;;;3.87;;
16832;SDS011;8533;48.426;10.868;2023-09-07T13:17:55;6.10;;;3.93;;
16832;SDS011;8533;48.426;10.868;2023-09-07T13:20:21;4.43;;;4.03;;
16832;SDS011;8533;48.426;10.868;2023-09-07T13:22:46;6.87;;;4.57;;
16832;SDS011;8533;48.426;10.868;2023-09-07T13:25:12;5.90;;;4.60;;
16832;SDS011;8533;48.426;10.868;2023-09-07T13:27:37;5.63;;;4.10;;
16832;SDS011;8533;48.426;10.868;2023-09-07T13:30:03;5.83;;;4.50;;
16832;SDS011;8533;48.426;10.868;2023-09-07T13:32:29;5.87;;;3.87;;
16832;SDS011;8533;48.426;10.868;2023-09-07T13:34:55;5.70;;;4.60;;
16832;SDS011;8533;48.426;10.868;2023-09-07T13:37:20;4.63;;;4.20;;
16832;SDS011;8533;48.426;10.868;2023-09-07T13:39:45;4.23;;;3.73;;
16832;SDS011;8533;48.426;10.868;2023-09-07T13:42:11;5.70;;;4.20;;
16832;SDS011;8533;48.426;10.868;2023-09-07T13:44:36;6.97;;;4.37;;
16832;SDS011;8533;48.426;10.868;2023-09-07T13:47:01;7.57;;;3.90;;
16832;SDS011;8533;48.426;10.868;2023-09-07T13:49:27;7.07;;;4.20;;
16832;SDS011;8533;48.426;10.868;2023-09-07T13:51:52;5.43;;;4.00;;
16832;SDS011;8533;48.426;10.868;2023-09-07T13:54:18;5.80;;;4.10;;
16832;SDS011;8533;48.426;10.868;2023-09-07T13:56:43;5.37;;;3.90;;
16832;SDS011;8533;48.426;10.868;2023-09-07T13:59:10;7.83;;;4.27;;
16832;SDS011;8533;48.426;10.868;2023-09-07T14:01:35;5.70;;;4.07;;
16832;SDS011;8533;48.426;10.868;2023-09-07T14:04:00;5.60;;;4.20;;
16832;SDS011;8533;48.426;10.868;2023-09-07T14:06:26;8.23;;;4.00;;
16832;SDS011;8533;48.426;10.868;2023-09-07T14:08:51;5.60;;;4.10;;
16832;SDS011;8533;48.426;10.868;2023-09-07T14:11:17;4.33;;;3.70;;
16832;SDS011;8533;48.426;10.868;2023-09-07T14:13:42;4.27;;;3.70;;
16832;SDS011;8533;48.426;10.868;2023-09-07T14:16:07;6.10;;;4.00;;
16832;SDS011;8533;48.426;10.868;2023-09-07T14:18:35;6.67;;;4.40;;
16832;SDS011;8533;48.426;10.868;2023-09-07T14:21:01;5.07;;;3.57;;
16832;SDS011;8533;48.426;10.868;2023-09-07T14:23:26;6.87;;;3.87;;
16832;SDS011;8533;48.426;10.868;2023-09-07T14:25:52;6.10;;;3.90;;
16832;SDS011;8533;48.426;10.868;2023-09-07T14:28:18;4.23;;;3.50;;
16832;SDS011;8533;48.426;10.868;2023-09-07T14:30:43;4.23;;;3.80;;
16832;SDS011;8533;48.426;10.868;2023-09-07T14:33:08;3.83;;;3.40;;
16832;SDS011;8533;48.426;10.868;2023-09-07T14:35:34;4.37;;;3.53;;
16832;SDS011;8533;48.426;10.868;2023-09-07T14:37:59;5.23;;;3.57;;
16832;SDS011;8533;48.426;10.868;2023-09-07T14:40:25;4.90;;;3.83;;
16832;SDS011;8533;48.426;10.868;2023-09-07T14:42:50;5.00;;;3.60;;
16832;SDS011;8533;48.426;10.868;2023-09-07T14:45:16;4.73;;;3.63;;